Terminal Aerodrome Forecast
Issued by NWS La Crosse, WI

Home | Current Version | Previous Version | Text Only | Print | Product List | Glossary On
Versions: 1 2 3 4 5 6 7 8 9 10 11 12 13 14 15 16 17 18 19 20 21 22 23 24 25 26 27 28 29 30 31 32 33 34 35 36 37 38 39 40 41 42
000
FTUS43 KARX 300634 AAA
TAFLSE
TAF AMD
KLSE 300634Z 3007/3106 VRB04KT 5SM BR VCSH SCT005 BKN025
      TEMPO 3007/3010 3SM SHRA SCT005 BKN015
     FM301200 VRB03KT 3SM BR BKN005
      TEMPO 3012/3015 1SM BR
     FM301600 30006KT 4SM BR BKN022
     FM302000 31007KT P6SM BKN035=

USA.gov is the U.S. government's official web portal to all federal, state and local government web resources and services.